sensor_id;sensor_type;location;lat;lon;timestamp;P1;durP1;ratioP1;P2;durP2;ratioP2
287;SDS011;128;48.770;9.198;2024-03-08T00:00:50;45.97;;;20.93;;
287;SDS011;128;48.770;9.198;2024-03-08T00:03:16;46.93;;;20.50;;
287;SDS011;128;48.770;9.198;2024-03-08T00:05:42;51.47;;;21.80;;
287;SDS011;128;48.770;9.198;2024-03-08T00:08:08;46.43;;;21.43;;
287;SDS011;128;48.770;9.198;2024-03-08T00:10:34;52.27;;;22.43;;
287;SDS011;128;48.770;9.198;2024-03-08T00:13:01;46.30;;;20.77;;
287;SDS011;128;48.770;9.198;2024-03-08T00:15:29;33.67;;;15.37;;
287;SDS011;128;48.770;9.198;2024-03-08T00:17:57;43.90;;;19.47;;
287;SDS011;128;48.770;9.198;2024-03-08T00:20:23;43.77;;;20.87;;
287;SDS011;128;48.770;9.198;2024-03-08T00:22:49;51.23;;;22.00;;
287;SDS011;128;48.770;9.198;2024-03-08T00:25:16;46.03;;;22.73;;
287;SDS011;128;48.770;9.198;2024-03-08T00:27:43;46.43;;;22.70;;
287;SDS011;128;48.770;9.198;2024-03-08T00:30:09;51.57;;;22.43;;
287;SDS011;128;48.770;9.198;2024-03-08T00:32:38;38.50;;;18.60;;
287;SDS011;128;48.770;9.198;2024-03-08T00:35:04;44.97;;;19.77;;
287;SDS011;128;48.770;9.198;2024-03-08T00:37:32;45.90;;;21.03;;
287;SDS011;128;48.770;9.198;2024-03-08T00:39:59;41.77;;;21.53;;
287;SDS011;128;48.770;9.198;2024-03-08T00:42:25;37.50;;;19.43;;
287;SDS011;128;48.770;9.198;2024-03-08T00:44:51;44.93;;;21.70;;
287;SDS011;128;48.770;9.198;2024-03-08T00:47:17;49.60;;;21.60;;
287;SDS011;128;48.770;9.198;2024-03-08T00:49:43;44.93;;;19.87;;
287;SDS011;128;48.770;9.198;2024-03-08T00:52:09;35.13;;;13.80;;
287;SDS011;128;48.770;9.198;2024-03-08T00:54:35;41.07;;;19.40;;
287;SDS011;128;48.770;9.198;2024-03-08T00:57:01;48.93;;;20.73;;
287;SDS011;128;48.770;9.198;2024-03-08T00:59:27;52.67;;;22.80;;
287;SDS011;128;48.770;9.198;2024-03-08T01:01:53;43.67;;;20.13;;
287;SDS011;128;48.770;9.198;2024-03-08T01:04:19;40.97;;;19.30;;
287;SDS011;128;48.770;9.198;2024-03-08T01:06:46;49.37;;;20.20;;
287;SDS011;128;48.770;9.198;2024-03-08T01:09:12;47.30;;;20.10;;
287;SDS011;128;48.770;9.198;2024-03-08T01:11:38;41.23;;;20.77;;
287;SDS011;128;48.770;9.198;2024-03-08T01:14:05;21.23;;;10.63;;
287;SDS011;128;48.770;9.198;2024-03-08T01:16:31;45.57;;;21.93;;
287;SDS011;128;48.770;9.198;2024-03-08T01:18:58;59.00;;;21.90;;
287;SDS011;128;48.770;9.198;2024-03-08T01:21:24;48.17;;;21.20;;
287;SDS011;128;48.770;9.198;2024-03-08T01:23:50;43.23;;;21.60;;
287;SDS011;128;48.770;9.198;2024-03-08T01:26:16;48.83;;;19.57;;
287;SDS011;128;48.770;9.198;2024-03-08T01:28:41;44.70;;;20.47;;
287;SDS011;128;48.770;9.198;2024-03-08T01:31:07;51.63;;;22.00;;
287;SDS011;128;48.770;9.198;2024-03-08T01:33:33;50.37;;;21.77;;
287;SDS011;128;48.770;9.198;2024-03-08T01:35:59;47.40;;;21.47;;
287;SDS011;128;48.770;9.198;2024-03-08T01:38:25;43.97;;;20.30;;
287;SDS011;128;48.770;9.198;2024-03-08T01:40:51;52.13;;;22.40;;
287;SDS011;128;48.770;9.198;2024-03-08T01:43:18;47.77;;;20.97;;
287;SDS011;128;48.770;9.198;2024-03-08T01:45:44;52.23;;;21.70;;
287;SDS011;128;48.770;9.198;2024-03-08T01:48:10;66.17;;;23.27;;
287;SDS011;128;48.770;9.198;2024-03-08T01:50:37;56.27;;;22.40;;
287;SDS011;128;48.770;9.198;2024-03-08T01:53:04;50.73;;;21.30;;
287;SDS011;128;48.770;9.198;2024-03-08T01:55:30;45.27;;;21.47;;
287;SDS011;128;48.770;9.198;2024-03-08T01:57:56;45.50;;;20.57;;
287;SDS011;128;48.770;9.198;2024-03-08T02:00:23;48.37;;;21.50;;
287;SDS011;128;48.770;9.198;2024-03-08T02:02:51;43.70;;;19.77;;
287;SDS011;128;48.770;9.198;2024-03-08T02:05:19;50.00;;;21.40;;
287;SDS011;128;48.770;9.198;2024-03-08T02:07:45;46.37;;;20.57;;
287;SDS011;128;48.770;9.198;2024-03-08T02:10:11;51.27;;;23.63;;
287;SDS011;128;48.770;9.198;2024-03-08T02:12:40;46.60;;;20.43;;
287;SDS011;128;48.770;9.198;2024-03-08T02:15:06;46.63;;;20.60;;
287;SDS011;128;48.770;9.198;2024-03-08T02:17:32;55.83;;;22.40;;
287;SDS011;128;48.770;9.198;2024-03-08T02:19:59;42.47;;;19.33;;
287;SDS011;128;48.770;9.198;2024-03-08T02:22:30;44.63;;;19.50;;
287;SDS011;128;48.770;9.198;2024-03-08T02:24:59;39.30;;;18.57;;
287;SDS011;128;48.770;9.198;2024-03-08T02:27:26;42.70;;;19.77;;
287;SDS011;128;48.770;9.198;2024-03-08T02:29:54;44.33;;;21.00;;
287;SDS011;128;48.770;9.198;2024-03-08T02:32:21;42.27;;;19.63;;
287;SDS011;128;48.770;9.198;2024-03-08T02:34:47;47.43;;;19.93;;
287;SDS011;128;48.770;9.198;2024-03-08T02:37:13;44.43;;;18.83;;
287;SDS011;128;48.770;9.198;2024-03-08T02:39:39;41.53;;;19.60;;
287;SDS011;128;48.770;9.198;2024-03-08T02:42:05;45.90;;;20.43;;
287;SDS011;128;48.770;9.198;2024-03-08T02:44:31;43.17;;;20.03;;
287;SDS011;128;48.770;9.198;2024-03-08T02:46:59;38.37;;;17.97;;
287;SDS011;128;48.770;9.198;2024-03-08T02:49:25;43.10;;;20.20;;
287;SDS011;128;48.770;9.198;2024-03-08T02:51:51;43.03;;;19.80;;
287;SDS011;128;48.770;9.198;2024-03-08T02:54:17;44.83;;;20.87;;
287;SDS011;128;48.770;9.198;2024-03-08T02:56:44;49.77;;;19.93;;
287;SDS011;128;48.770;9.198;2024-03-08T02:59:11;38.57;;;18.83;;
287;SDS011;128;48.770;9.198;2024-03-08T03:01:37;44.47;;;18.70;;
287;SDS011;128;48.770;9.198;2024-03-08T03:04:04;40.17;;;17.63;;
287;SDS011;128;48.770;9.198;2024-03-08T03:06:30;37.40;;;18.87;;
287;SDS011;128;48.770;9.198;2024-03-08T03:08:56;40.20;;;19.60;;
287;SDS011;128;48.770;9.198;2024-03-08T03:11:22;38.60;;;17.50;;
287;SDS011;128;48.770;9.198;2024-03-08T03:13:48;39.80;;;19.80;;
287;SDS011;128;48.770;9.198;2024-03-08T03:16:17;37.93;;;17.40;;
287;SDS011;128;48.770;9.198;2024-03-08T03:18:46;42.37;;;19.17;;
287;SDS011;128;48.770;9.198;2024-03-08T03:21:13;51.83;;;19.87;;
287;SDS011;128;48.770;9.198;2024-03-08T03:23:39;46.73;;;18.87;;
287;SDS011;128;48.770;9.198;2024-03-08T03:26:07;43.70;;;19.17;;
287;SDS011;128;48.770;9.198;2024-03-08T03:28:33;50.67;;;20.30;;
287;SDS011;128;48.770;9.198;2024-03-08T03:30:59;38.37;;;18.10;;
287;SDS011;128;48.770;9.198;2024-03-08T03:33:26;45.63;;;20.40;;
287;SDS011;128;48.770;9.198;2024-03-08T03:35:52;42.30;;;18.90;;
287;SDS011;128;48.770;9.198;2024-03-08T03:38:19;39.50;;;17.90;;
287;SDS011;128;48.770;9.198;2024-03-08T03:40:45;36.57;;;17.43;;
287;SDS011;128;48.770;9.198;2024-03-08T03:43:13;35.77;;;16.60;;
287;SDS011;128;48.770;9.198;2024-03-08T03:45:39;45.07;;;19.33;;
287;SDS011;128;48.770;9.198;2024-03-08T03:48:08;46.80;;;21.13;;
287;SDS011;128;48.770;9.198;2024-03-08T03:50:34;40.50;;;19.60;;
287;SDS011;128;48.770;9.198;2024-03-08T03:53:00;46.00;;;19.47;;
287;SDS011;128;48.770;9.198;2024-03-08T03:55:27;39.27;;;18.27;;
287;SDS011;128;48.770;9.198;2024-03-08T03:57:53;37.10;;;18.67;;
287;SDS011;128;48.770;9.198;2024-03-08T04:00:19;46.07;;;20.07;;
287;SDS011;128;48.770;9.198;2024-03-08T04:02:45;41.93;;;18.73;;
287;SDS011;128;48.770;9.198;2024-03-08T04:05:11;50.10;;;20.00;;
287;SDS011;128;48.770;9.198;2024-03-08T04:07:38;42.63;;;20.47;;
287;SDS011;128;48.770;9.198;2024-03-08T04:10:04;54.97;;;20.37;;
287;SDS011;128;48.770;9.198;2024-03-08T04:12:34;50.83;;;18.83;;
287;SDS011;128;48.770;9.198;2024-03-08T04:15:00;49.63;;;20.50;;
287;SDS011;128;48.770;9.198;2024-03-08T04:17:26;49.37;;;21.27;;
287;SDS011;128;48.770;9.198;2024-03-08T04:19:52;40.17;;;17.80;;
287;SDS011;128;48.770;9.198;2024-03-08T04:22:18;47.50;;;19.50;;
287;SDS011;128;48.770;9.198;2024-03-08T04:24:44;45.30;;;19.93;;
287;SDS011;128;48.770;9.198;2024-03-08T04:27:11;44.93;;;21.77;;
287;SDS011;128;48.770;9.198;2024-03-08T04:29:37;43.67;;;20.27;;
287;SDS011;128;48.770;9.198;2024-03-08T04:32:03;46.30;;;19.80;;
287;SDS011;128;48.770;9.198;2024-03-08T04:34:30;51.70;;;20.57;;
287;SDS011;128;48.770;9.198;2024-03-08T04:36:59;52.70;;;23.73;;
287;SDS011;128;48.770;9.198;2024-03-08T04:39:25;41.63;;;21.47;;
287;SDS011;128;48.770;9.198;2024-03-08T04:41:55;47.37;;;21.07;;
287;SDS011;128;48.770;9.198;2024-03-08T04:44:22;44.97;;;21.57;;
287;SDS011;128;48.770;9.198;2024-03-08T04:46:49;52.30;;;22.03;;
287;SDS011;128;48.770;9.198;2024-03-08T04:49:15;47.33;;;20.50;;
287;SDS011;128;48.770;9.198;2024-03-08T04:51:41;47.27;;;20.87;;
287;SDS011;128;48.770;9.198;2024-03-08T04:54:07;42.80;;;20.13;;
287;SDS011;128;48.770;9.198;2024-03-08T04:56:33;51.70;;;21.83;;
287;SDS011;128;48.770;9.198;2024-03-08T04:58:59;47.10;;;21.67;;
287;SDS011;128;48.770;9.198;2024-03-08T05:01:25;48.30;;;21.43;;
287;SDS011;128;48.770;9.198;2024-03-08T05:03:51;48.00;;;20.37;;
287;SDS011;128;48.770;9.198;2024-03-08T05:06:20;39.80;;;20.30;;
287;SDS011;128;48.770;9.198;2024-03-08T05:08:46;49.83;;;20.80;;
287;SDS011;128;48.770;9.198;2024-03-08T05:11:12;42.10;;;21.20;;
287;SDS011;128;48.770;9.198;2024-03-08T05:13:39;51.70;;;21.57;;
287;SDS011;128;48.770;9.198;2024-03-08T05:16:05;53.23;;;22.90;;
287;SDS011;128;48.770;9.198;2024-03-08T05:18:32;50.67;;;21.40;;
287;SDS011;128;48.770;9.198;2024-03-08T05:20:58;48.27;;;21.03;;
287;SDS011;128;48.770;9.198;2024-03-08T05:23:24;54.10;;;25.50;;
287;SDS011;128;48.770;9.198;2024-03-08T05:25:50;47.20;;;21.97;;
287;SDS011;128;48.770;9.198;2024-03-08T05:28:16;53.43;;;22.83;;
287;SDS011;128;48.770;9.198;2024-03-08T05:30:42;56.70;;;21.77;;
287;SDS011;128;48.770;9.198;2024-03-08T05:33:08;50.13;;;23.23;;
287;SDS011;128;48.770;9.198;2024-03-08T05:35:35;53.43;;;24.50;;
287;SDS011;128;48.770;9.198;2024-03-08T05:38:02;48.27;;;22.93;;
287;SDS011;128;48.770;9.198;2024-03-08T05:40:28;58.60;;;23.20;;
287;SDS011;128;48.770;9.198;2024-03-08T05:42:57;52.60;;;22.37;;
287;SDS011;128;48.770;9.198;2024-03-08T05:45:23;53.73;;;22.20;;
287;SDS011;128;48.770;9.198;2024-03-08T05:47:50;51.10;;;21.97;;
287;SDS011;128;48.770;9.198;2024-03-08T05:50:16;51.60;;;21.10;;
287;SDS011;128;48.770;9.198;2024-03-08T05:52:42;48.23;;;22.10;;
287;SDS011;128;48.770;9.198;2024-03-08T05:55:08;49.77;;;23.17;;
287;SDS011;128;48.770;9.198;2024-03-08T05:57:35;46.63;;;21.57;;
287;SDS011;128;48.770;9.198;2024-03-08T06:00:04;51.37;;;22.77;;
287;SDS011;128;48.770;9.198;2024-03-08T06:02:30;50.10;;;21.50;;
287;SDS011;128;48.770;9.198;2024-03-08T06:04:56;39.87;;;20.13;;
287;SDS011;128;48.770;9.198;2024-03-08T06:07:22;49.87;;;23.43;;
287;SDS011;128;48.770;9.198;2024-03-08T06:09:48;42.30;;;20.00;;
287;SDS011;128;48.770;9.198;2024-03-08T06:12:14;51.97;;;22.67;;
287;SDS011;128;48.770;9.198;2024-03-08T06:14:44;48.20;;;23.50;;
287;SDS011;128;48.770;9.198;2024-03-08T06:17:11;48.60;;;19.30;;
287;SDS011;128;48.770;9.198;2024-03-08T06:19:37;45.90;;;20.93;;
287;SDS011;128;48.770;9.198;2024-03-08T06:22:03;56.27;;;23.93;;
287;SDS011;128;48.770;9.198;2024-03-08T06:24:31;53.60;;;24.20;;
287;SDS011;128;48.770;9.198;2024-03-08T06:26:57;52.53;;;23.30;;
287;SDS011;128;48.770;9.198;2024-03-08T06:29:23;56.93;;;23.20;;
287;SDS011;128;48.770;9.198;2024-03-08T06:31:49;53.27;;;22.87;;
287;SDS011;128;48.770;9.198;2024-03-08T06:34:15;56.63;;;24.33;;
287;SDS011;128;48.770;9.198;2024-03-08T06:36:42;47.63;;;22.30;;
287;SDS011;128;48.770;9.198;2024-03-08T06:39:09;50.37;;;23.30;;
287;SDS011;128;48.770;9.198;2024-03-08T06:41:38;55.77;;;23.60;;
287;SDS011;128;48.770;9.198;2024-03-08T06:44:04;61.20;;;26.90;;
287;SDS011;128;48.770;9.198;2024-03-08T06:46:30;53.57;;;23.87;;
287;SDS011;128;48.770;9.198;2024-03-08T06:48:56;54.63;;;24.40;;
287;SDS011;128;48.770;9.198;2024-03-08T06:51:22;42.07;;;22.00;;
287;SDS011;128;48.770;9.198;2024-03-08T06:53:48;63.70;;;26.37;;
287;SDS011;128;48.770;9.198;2024-03-08T06:56:14;57.67;;;24.30;;
287;SDS011;128;48.770;9.198;2024-03-08T06:58:40;57.43;;;23.77;;
287;SDS011;128;48.770;9.198;2024-03-08T07:01:07;64.00;;;26.23;;
287;SDS011;128;48.770;9.198;2024-03-08T07:03:38;49.60;;;24.07;;
287;SDS011;128;48.770;9.198;2024-03-08T07:06:08;51.83;;;25.23;;
287;SDS011;128;48.770;9.198;2024-03-08T07:08:34;57.03;;;24.40;;
287;SDS011;128;48.770;9.198;2024-03-08T07:11:00;53.73;;;23.80;;
287;SDS011;128;48.770;9.198;2024-03-08T07:13:26;42.77;;;20.60;;
287;SDS011;128;48.770;9.198;2024-03-08T07:15:55;48.27;;;23.70;;
287;SDS011;128;48.770;9.198;2024-03-08T07:18:24;49.40;;;23.90;;
287;SDS011;128;48.770;9.198;2024-03-08T07:20:50;51.43;;;22.90;;
287;SDS011;128;48.770;9.198;2024-03-08T07:23:16;59.70;;;22.87;;
287;SDS011;128;48.770;9.198;2024-03-08T07:26:01;48.50;;;22.50;;
287;SDS011;128;48.770;9.198;2024-03-08T07:28:27;39.93;;;20.70;;
287;SDS011;128;48.770;9.198;2024-03-08T07:30:55;47.60;;;22.43;;
287;SDS011;128;48.770;9.198;2024-03-08T07:33:34;40.80;;;20.57;;
287;SDS011;128;48.770;9.198;2024-03-08T07:36:00;48.87;;;21.30;;
287;SDS011;128;48.770;9.198;2024-03-08T07:38:26;41.27;;;18.53;;
287;SDS011;128;48.770;9.198;2024-03-08T07:40:52;40.13;;;19.30;;
287;SDS011;128;48.770;9.198;2024-03-08T07:43:18;43.60;;;20.00;;
287;SDS011;128;48.770;9.198;2024-03-08T07:45:44;40.60;;;20.57;;
287;SDS011;128;48.770;9.198;2024-03-08T07:48:10;46.40;;;19.90;;
287;SDS011;128;48.770;9.198;2024-03-08T07:50:36;43.60;;;20.73;;
287;SDS011;128;48.770;9.198;2024-03-08T07:53:04;36.20;;;18.00;;
287;SDS011;128;48.770;9.198;2024-03-08T07:55:31;50.80;;;20.73;;
287;SDS011;128;48.770;9.198;2024-03-08T07:57:57;42.60;;;17.23;;
287;SDS011;128;48.770;9.198;2024-03-08T08:00:23;40.33;;;19.07;;
287;SDS011;128;48.770;9.198;2024-03-08T08:02:52;42.13;;;19.47;;
287;SDS011;128;48.770;9.198;2024-03-08T08:05:18;40.67;;;18.97;;
287;SDS011;128;48.770;9.198;2024-03-08T08:07:44;35.57;;;16.00;;
287;SDS011;128;48.770;9.198;2024-03-08T08:10:11;39.50;;;18.20;;
287;SDS011;128;48.770;9.198;2024-03-08T08:12:43;37.50;;;18.00;;
287;SDS011;128;48.770;9.198;2024-03-08T08:15:09;40.83;;;19.60;;
287;SDS011;128;48.770;9.198;2024-03-08T08:17:35;38.10;;;17.00;;
287;SDS011;128;48.770;9.198;2024-03-08T08:20:01;36.93;;;19.10;;
287;SDS011;128;48.770;9.198;2024-03-08T08:22:30;40.30;;;18.13;;
287;SDS011;128;48.770;9.198;2024-03-08T08:24:56;36.53;;;17.63;;
287;SDS011;128;48.770;9.198;2024-03-08T08:27:22;37.20;;;18.27;;
287;SDS011;128;48.770;9.198;2024-03-08T08:29:48;33.83;;;15.80;;
287;SDS011;128;48.770;9.198;2024-03-08T08:32:14;45.23;;;19.60;;
287;SDS011;128;48.770;9.198;2024-03-08T08:34:40;37.37;;;18.37;;
287;SDS011;128;48.770;9.198;2024-03-08T08:37:07;36.93;;;16.40;;
287;SDS011;128;48.770;9.198;2024-03-08T08:39:34;45.33;;;18.80;;
287;SDS011;128;48.770;9.198;2024-03-08T08:42:00;39.43;;;17.67;;
287;SDS011;128;48.770;9.198;2024-03-08T08:44:28;34.20;;;16.70;;
287;SDS011;128;48.770;9.198;2024-03-08T08:46:56;41.07;;;18.03;;
287;SDS011;128;48.770;9.198;2024-03-08T08:49:22;41.13;;;18.97;;
287;SDS011;128;48.770;9.198;2024-03-08T08:51:51;39.57;;;17.33;;
287;SDS011;128;48.770;9.198;2024-03-08T08:54:18;36.20;;;18.33;;
287;SDS011;128;48.770;9.198;2024-03-08T08:56:45;38.00;;;17.50;;
287;SDS011;128;48.770;9.198;2024-03-08T08:59:12;35.97;;;15.77;;
287;SDS011;128;48.770;9.198;2024-03-08T09:01:44;37.23;;;17.77;;
287;SDS011;128;48.770;9.198;2024-03-08T09:04:12;41.07;;;17.30;;
287;SDS011;128;48.770;9.198;2024-03-08T09:06:38;40.23;;;17.57;;
287;SDS011;128;48.770;9.198;2024-03-08T09:09:06;43.03;;;18.60;;
287;SDS011;128;48.770;9.198;2024-03-08T09:11:36;41.77;;;17.83;;
287;SDS011;128;48.770;9.198;2024-03-08T09:14:06;38.10;;;17.13;;
287;SDS011;128;48.770;9.198;2024-03-08T09:16:32;45.37;;;17.73;;
287;SDS011;128;48.770;9.198;2024-03-08T09:18:58;40.00;;;18.00;;
287;SDS011;128;48.770;9.198;2024-03-08T09:21:24;46.77;;;18.60;;
287;SDS011;128;48.770;9.198;2024-03-08T09:23:52;42.33;;;19.23;;
287;SDS011;128;48.770;9.198;2024-03-08T09:26:19;37.10;;;17.83;;
287;SDS011;128;48.770;9.198;2024-03-08T09:28:45;35.93;;;17.83;;
287;SDS011;128;48.770;9.198;2024-03-08T09:31:11;39.17;;;17.73;;
287;SDS011;128;48.770;9.198;2024-03-08T09:33:37;31.27;;;15.87;;
287;SDS011;128;48.770;9.198;2024-03-08T09:36:04;34.83;;;15.10;;
287;SDS011;128;48.770;9.198;2024-03-08T09:38:30;42.00;;;16.50;;
287;SDS011;128;48.770;9.198;2024-03-08T09:40:56;37.13;;;17.53;;
287;SDS011;128;48.770;9.198;2024-03-08T09:43:23;36.60;;;16.60;;
287;SDS011;128;48.770;9.198;2024-03-08T09:45:49;34.90;;;16.50;;
287;SDS011;128;48.770;9.198;2024-03-08T09:48:16;39.93;;;18.10;;
287;SDS011;128;48.770;9.198;2024-03-08T09:50:44;37.83;;;17.43;;
287;SDS011;128;48.770;9.198;2024-03-08T09:53:11;34.63;;;17.00;;
287;SDS011;128;48.770;9.198;2024-03-08T09:55:37;32.40;;;16.67;;
287;SDS011;128;48.770;9.198;2024-03-08T09:58:07;37.23;;;16.37;;
287;SDS011;128;48.770;9.198;2024-03-08T10:00:45;33.67;;;15.63;;
287;SDS011;128;48.770;9.198;2024-03-08T10:03:11;38.83;;;15.87;;
287;SDS011;128;48.770;9.198;2024-03-08T10:05:39;32.67;;;14.30;;
287;SDS011;128;48.770;9.198;2024-03-08T10:08:05;31.63;;;14.97;;
287;SDS011;128;48.770;9.198;2024-03-08T10:10:33;29.50;;;14.47;;
287;SDS011;128;48.770;9.198;2024-03-08T10:12:59;29.10;;;15.77;;
287;SDS011;128;48.770;9.198;2024-03-08T10:15:26;34.77;;;14.73;;
287;SDS011;128;48.770;9.198;2024-03-08T10:17:55;33.90;;;15.17;;
287;SDS011;128;48.770;9.198;2024-03-08T10:20:21;29.40;;;14.87;;
287;SDS011;128;48.770;9.198;2024-03-08T10:22:48;40.10;;;15.80;;
287;SDS011;128;48.770;9.198;2024-03-08T10:25:14;34.37;;;15.37;;
287;SDS011;128;48.770;9.198;2024-03-08T10:27:40;33.93;;;14.90;;
287;SDS011;128;48.770;9.198;2024-03-08T10:30:10;33.10;;;14.87;;
287;SDS011;128;48.770;9.198;2024-03-08T10:32:38;30.60;;;14.00;;
287;SDS011;128;48.770;9.198;2024-03-08T10:35:06;31.23;;;13.67;;
287;SDS011;128;48.770;9.198;2024-03-08T10:37:33;33.93;;;15.77;;
287;SDS011;128;48.770;9.198;2024-03-08T10:40:03;32.40;;;14.43;;
287;SDS011;128;48.770;9.198;2024-03-08T10:42:38;31.10;;;13.70;;
287;SDS011;128;48.770;9.198;2024-03-08T10:47:57;26.80;;;13.87;;
287;SDS011;128;48.770;9.198;2024-03-08T10:50:28;27.40;;;13.83;;
287;SDS011;128;48.770;9.198;2024-03-08T10:52:54;29.10;;;14.33;;
287;SDS011;128;48.770;9.198;2024-03-08T10:55:23;31.90;;;13.30;;
287;SDS011;128;48.770;9.198;2024-03-08T10:57:51;31.47;;;15.57;;
287;SDS011;128;48.770;9.198;2024-03-08T11:00:18;30.40;;;13.70;;
287;SDS011;128;48.770;9.198;2024-03-08T11:02:51;39.83;;;15.17;;
287;SDS011;128;48.770;9.198;2024-03-08T11:05:31;30.37;;;14.33;;
287;SDS011;128;48.770;9.198;2024-03-08T11:08:00;30.77;;;13.90;;
287;SDS011;128;48.770;9.198;2024-03-08T11:10:26;24.33;;;12.53;;
287;SDS011;128;48.770;9.198;2024-03-08T11:12:52;29.80;;;14.00;;
287;SDS011;128;48.770;9.198;2024-03-08T11:15:18;32.27;;;16.40;;
287;SDS011;128;48.770;9.198;2024-03-08T11:17:50;34.67;;;15.00;;
287;SDS011;128;48.770;9.198;2024-03-08T11:20:19;28.77;;;12.30;;
287;SDS011;128;48.770;9.198;2024-03-08T11:22:57;28.47;;;13.60;;
287;SDS011;128;48.770;9.198;2024-03-08T11:25:39;26.60;;;13.03;;
287;SDS011;128;48.770;9.198;2024-03-08T11:28:28;28.67;;;13.77;;
287;SDS011;128;48.770;9.198;2024-03-08T11:33:28;30.50;;;14.00;;
287;SDS011;128;48.770;9.198;2024-03-08T11:38:44;26.43;;;13.27;;
287;SDS011;128;48.770;9.198;2024-03-08T11:41:21;30.10;;;14.03;;
287;SDS011;128;48.770;9.198;2024-03-08T11:43:48;28.90;;;13.40;;
287;SDS011;128;48.770;9.198;2024-03-08T11:46:15;27.30;;;13.37;;
287;SDS011;128;48.770;9.198;2024-03-08T11:48:41;31.40;;;14.10;;
287;SDS011;128;48.770;9.198;2024-03-08T11:51:08;26.60;;;12.27;;
287;SDS011;128;48.770;9.198;2024-03-08T11:53:34;30.00;;;12.17;;
287;SDS011;128;48.770;9.198;2024-03-08T11:56:07;33.20;;;14.17;;
287;SDS011;128;48.770;9.198;2024-03-08T11:58:34;36.83;;;14.20;;
287;SDS011;128;48.770;9.198;2024-03-08T12:01:05;30.70;;;14.07;;
287;SDS011;128;48.770;9.198;2024-03-08T12:03:31;32.53;;;14.73;;
287;SDS011;128;48.770;9.198;2024-03-08T12:05:59;30.63;;;15.80;;
287;SDS011;128;48.770;9.198;2024-03-08T12:08:25;31.97;;;15.00;;
287;SDS011;128;48.770;9.198;2024-03-08T12:10:53;27.50;;;14.10;;
287;SDS011;128;48.770;9.198;2024-03-08T12:13:24;32.70;;;14.40;;
287;SDS011;128;48.770;9.198;2024-03-08T12:15:50;35.50;;;14.87;;
287;SDS011;128;48.770;9.198;2024-03-08T12:18:16;30.30;;;13.43;;
287;SDS011;128;48.770;9.198;2024-03-08T12:20:42;35.10;;;15.27;;
287;SDS011;128;48.770;9.198;2024-03-08T12:23:14;36.90;;;14.93;;
287;SDS011;128;48.770;9.198;2024-03-08T12:25:41;36.60;;;14.27;;
287;SDS011;128;48.770;9.198;2024-03-08T12:28:10;34.70;;;14.67;;
287;SDS011;128;48.770;9.198;2024-03-08T12:30:47;31.60;;;14.27;;
287;SDS011;128;48.770;9.198;2024-03-08T12:33:13;37.47;;;15.00;;
287;SDS011;128;48.770;9.198;2024-03-08T12:35:39;36.67;;;14.70;;
287;SDS011;128;48.770;9.198;2024-03-08T12:38:07;31.80;;;13.67;;
287;SDS011;128;48.770;9.198;2024-03-08T12:40:33;37.87;;;15.50;;
287;SDS011;128;48.770;9.198;2024-03-08T12:43:01;33.90;;;14.47;;
287;SDS011;128;48.770;9.198;2024-03-08T12:45:27;32.50;;;14.47;;
287;SDS011;128;48.770;9.198;2024-03-08T12:47:54;30.07;;;13.80;;
287;SDS011;128;48.770;9.198;2024-03-08T12:50:20;33.10;;;13.50;;
287;SDS011;128;48.770;9.198;2024-03-08T12:52:46;28.70;;;14.13;;
287;SDS011;128;48.770;9.198;2024-03-08T12:55:13;42.23;;;14.63;;
287;SDS011;128;48.770;9.198;2024-03-08T12:57:41;33.63;;;13.80;;
287;SDS011;128;48.770;9.198;2024-03-08T13:00:07;32.10;;;13.00;;
287;SDS011;128;48.770;9.198;2024-03-08T13:02:38;34.90;;;14.97;;
287;SDS011;128;48.770;9.198;2024-03-08T13:05:04;28.43;;;13.27;;
287;SDS011;128;48.770;9.198;2024-03-08T13:07:31;27.13;;;14.27;;
287;SDS011;128;48.770;9.198;2024-03-08T13:09:57;29.10;;;13.60;;
287;SDS011;128;48.770;9.198;2024-03-08T13:12:24;32.87;;;15.17;;
287;SDS011;128;48.770;9.198;2024-03-08T13:14:50;32.37;;;13.40;;
287;SDS011;128;48.770;9.198;2024-03-08T13:17:17;26.73;;;13.70;;
287;SDS011;128;48.770;9.198;2024-03-08T13:19:43;32.77;;;14.70;;
287;SDS011;128;48.770;9.198;2024-03-08T13:22:09;29.63;;;14.97;;
287;SDS011;128;48.770;9.198;2024-03-08T13:24:38;34.83;;;15.40;;
287;SDS011;128;48.770;9.198;2024-03-08T13:27:05;34.93;;;16.00;;
287;SDS011;128;48.770;9.198;2024-03-08T13:29:41;30.20;;;14.17;;
287;SDS011;128;48.770;9.198;2024-03-08T13:32:08;34.03;;;14.40;;
287;SDS011;128;48.770;9.198;2024-03-08T13:34:37;34.67;;;16.77;;
287;SDS011;128;48.770;9.198;2024-03-08T13:37:03;39.37;;;16.33;;
287;SDS011;128;48.770;9.198;2024-03-08T13:39:30;34.57;;;15.07;;
287;SDS011;128;48.770;9.198;2024-03-08T13:42:05;34.33;;;15.43;;
287;SDS011;128;48.770;9.198;2024-03-08T13:44:34;32.80;;;15.17;;
287;SDS011;128;48.770;9.198;2024-03-08T13:47:00;42.00;;;16.93;;
287;SDS011;128;48.770;9.198;2024-03-08T13:49:29;36.67;;;16.60;;
287;SDS011;128;48.770;9.198;2024-03-08T13:51:55;36.33;;;15.37;;
287;SDS011;128;48.770;9.198;2024-03-08T13:54:23;32.37;;;14.40;;
287;SDS011;128;48.770;9.198;2024-03-08T13:56:49;36.03;;;15.30;;
287;SDS011;128;48.770;9.198;2024-03-08T13:59:19;39.90;;;17.37;;
287;SDS011;128;48.770;9.198;2024-03-08T14:01:47;36.03;;;16.23;;
287;SDS011;128;48.770;9.198;2024-03-08T14:04:13;36.00;;;16.10;;
287;SDS011;128;48.770;9.198;2024-03-08T14:06:42;35.57;;;15.60;;
287;SDS011;128;48.770;9.198;2024-03-08T14:09:10;35.57;;;16.47;;
287;SDS011;128;48.770;9.198;2024-03-08T14:11:41;38.37;;;16.50;;
287;SDS011;128;48.770;9.198;2024-03-08T14:14:07;34.93;;;16.30;;
287;SDS011;128;48.770;9.198;2024-03-08T14:16:34;32.73;;;14.87;;
287;SDS011;128;48.770;9.198;2024-03-08T14:19:02;40.07;;;16.60;;
287;SDS011;128;48.770;9.198;2024-03-08T14:21:33;33.17;;;14.97;;
287;SDS011;128;48.770;9.198;2024-03-08T14:23:59;31.67;;;14.30;;
287;SDS011;128;48.770;9.198;2024-03-08T14:26:26;39.43;;;17.60;;
287;SDS011;128;48.770;9.198;2024-03-08T14:28:52;35.50;;;13.93;;
287;SDS011;128;48.770;9.198;2024-03-08T14:31:19;33.50;;;15.27;;
287;SDS011;128;48.770;9.198;2024-03-08T14:33:45;36.63;;;16.80;;
287;SDS011;128;48.770;9.198;2024-03-08T14:36:15;38.77;;;16.20;;
287;SDS011;128;48.770;9.198;2024-03-08T14:38:44;44.13;;;15.53;;
287;SDS011;128;48.770;9.198;2024-03-08T14:41:12;39.83;;;15.33;;
287;SDS011;128;48.770;9.198;2024-03-08T14:43:43;37.27;;;15.70;;
287;SDS011;128;48.770;9.198;2024-03-08T14:46:12;36.23;;;14.23;;
287;SDS011;128;48.770;9.198;2024-03-08T14:48:48;42.83;;;16.53;;
287;SDS011;128;48.770;9.198;2024-03-08T14:51:16;34.40;;;15.37;;
287;SDS011;128;48.770;9.198;2024-03-08T14:53:44;36.47;;;15.67;;
287;SDS011;128;48.770;9.198;2024-03-08T14:56:11;38.73;;;16.77;;
287;SDS011;128;48.770;9.198;2024-03-08T14:58:41;30.27;;;15.20;;
287;SDS011;128;48.770;9.198;2024-03-08T15:01:08;47.90;;;16.50;;
287;SDS011;128;48.770;9.198;2024-03-08T15:03:35;34.57;;;15.77;;
287;SDS011;128;48.770;9.198;2024-03-08T15:06:02;37.30;;;17.13;;
287;SDS011;128;48.770;9.198;2024-03-08T15:08:33;36.20;;;15.37;;
287;SDS011;128;48.770;9.198;2024-03-08T15:10:59;38.93;;;16.57;;
287;SDS011;128;48.770;9.198;2024-03-08T15:13:24;38.03;;;15.90;;
287;SDS011;128;48.770;9.198;2024-03-08T15:16:03;36.47;;;15.30;;
287;SDS011;128;48.770;9.198;2024-03-08T15:18:31;31.80;;;14.40;;
287;SDS011;128;48.770;9.198;2024-03-08T15:21:04;38.20;;;15.20;;
287;SDS011;128;48.770;9.198;2024-03-08T15:23:34;32.43;;;15.13;;